sensor_id;sensor_type;location;lat;lon;timestamp;P1;durP1;ratioP1;P2;durP2;ratioP2
5493;SDS011;2769;49.864;8.656;2023-04-23T00:00:37;12.60;;;6.73;;
5493;SDS011;2769;49.864;8.656;2023-04-23T00:03:06;7.63;;;6.20;;
5493;SDS011;2769;49.864;8.656;2023-04-23T00:05:37;7.80;;;6.27;;
5493;SDS011;2769;49.864;8.656;2023-04-23T00:08:07;8.67;;;5.83;;
5493;SDS011;2769;49.864;8.656;2023-04-23T00:10:36;8.63;;;5.57;;
5493;SDS011;2769;49.864;8.656;2023-04-23T00:13:05;7.03;;;5.70;;
5493;SDS011;2769;49.864;8.656;2023-04-23T00:15:33;6.50;;;5.90;;
5493;SDS011;2769;49.864;8.656;2023-04-23T00:18:02;8.20;;;6.13;;
5493;SDS011;2769;49.864;8.656;2023-04-23T00:20:30;10.73;;;6.70;;
5493;SDS011;2769;49.864;8.656;2023-04-23T00:23:00;8.33;;;6.53;;
5493;SDS011;2769;49.864;8.656;2023-04-23T00:25:28;9.50;;;7.07;;
5493;SDS011;2769;49.864;8.656;2023-04-23T00:27:56;9.77;;;7.03;;
5493;SDS011;2769;49.864;8.656;2023-04-23T00:30:24;9.57;;;6.73;;
5493;SDS011;2769;49.864;8.656;2023-04-23T00:32:52;9.80;;;6.23;;
5493;SDS011;2769;49.864;8.656;2023-04-23T00:35:20;7.07;;;6.37;;
5493;SDS011;2769;49.864;8.656;2023-04-23T00:37:48;7.40;;;6.63;;
5493;SDS011;2769;49.864;8.656;2023-04-23T00:40:18;8.60;;;6.73;;
5493;SDS011;2769;49.864;8.656;2023-04-23T00:42:46;7.30;;;6.57;;
5493;SDS011;2769;49.864;8.656;2023-04-23T00:45:17;6.93;;;6.30;;
5493;SDS011;2769;49.864;8.656;2023-04-23T00:47:45;11.07;;;7.07;;
5493;SDS011;2769;49.864;8.656;2023-04-23T00:50:13;10.83;;;7.30;;
5493;SDS011;2769;49.864;8.656;2023-04-23T00:52:41;9.77;;;7.40;;
5493;SDS011;2769;49.864;8.656;2023-04-23T00:55:09;13.80;;;7.63;;
5493;SDS011;2769;49.864;8.656;2023-04-23T00:57:39;11.33;;;7.13;;
5493;SDS011;2769;49.864;8.656;2023-04-23T01:00:08;8.90;;;6.90;;
5493;SDS011;2769;49.864;8.656;2023-04-23T01:02:39;7.77;;;7.03;;
5493;SDS011;2769;49.864;8.656;2023-04-23T01:05:09;8.20;;;7.40;;
5493;SDS011;2769;49.864;8.656;2023-04-23T01:07:38;10.00;;;7.83;;
5493;SDS011;2769;49.864;8.656;2023-04-23T01:10:07;10.80;;;8.30;;
5493;SDS011;2769;49.864;8.656;2023-04-23T01:12:36;11.33;;;8.50;;
5493;SDS011;2769;49.864;8.656;2023-04-23T01:15:06;9.67;;;7.83;;
5493;SDS011;2769;49.864;8.656;2023-04-23T01:17:35;9.53;;;8.00;;
5493;SDS011;2769;49.864;8.656;2023-04-23T01:20:05;13.70;;;7.67;;
5493;SDS011;2769;49.864;8.656;2023-04-23T01:22:36;8.67;;;7.87;;
5493;SDS011;2769;49.864;8.656;2023-04-23T01:25:08;9.30;;;8.37;;
5493;SDS011;2769;49.864;8.656;2023-04-23T01:27:36;15.07;;;8.87;;
5493;SDS011;2769;49.864;8.656;2023-04-23T01:30:05;11.40;;;8.53;;
5493;SDS011;2769;49.864;8.656;2023-04-23T01:32:34;9.30;;;8.30;;
5493;SDS011;2769;49.864;8.656;2023-04-23T01:35:02;9.97;;;8.90;;
5493;SDS011;2769;49.864;8.656;2023-04-23T01:37:31;9.93;;;8.77;;
5493;SDS011;2769;49.864;8.656;2023-04-23T01:40:01;12.50;;;9.43;;
5493;SDS011;2769;49.864;8.656;2023-04-23T01:42:29;9.53;;;8.57;;
5493;SDS011;2769;49.864;8.656;2023-04-23T01:44:56;12.10;;;8.30;;
5493;SDS011;2769;49.864;8.656;2023-04-23T01:47:24;9.90;;;7.93;;
5493;SDS011;2769;49.864;8.656;2023-04-23T01:49:52;9.27;;;8.37;;
5493;SDS011;2769;49.864;8.656;2023-04-23T01:52:20;13.20;;;8.60;;
5493;SDS011;2769;49.864;8.656;2023-04-23T01:54:48;9.90;;;8.00;;
5493;SDS011;2769;49.864;8.656;2023-04-23T01:57:18;9.40;;;8.37;;
5493;SDS011;2769;49.864;8.656;2023-04-23T01:59:49;7.90;;;7.20;;
5493;SDS011;2769;49.864;8.656;2023-04-23T02:02:17;11.93;;;8.93;;
5493;SDS011;2769;49.864;8.656;2023-04-23T02:04:47;10.20;;;8.17;;
5493;SDS011;2769;49.864;8.656;2023-04-23T02:07:18;9.83;;;8.80;;
5493;SDS011;2769;49.864;8.656;2023-04-23T02:09:46;13.97;;;8.40;;
5493;SDS011;2769;49.864;8.656;2023-04-23T02:12:14;10.60;;;8.20;;
5493;SDS011;2769;49.864;8.656;2023-04-23T02:14:43;9.50;;;7.30;;
5493;SDS011;2769;49.864;8.656;2023-04-23T02:17:11;8.10;;;7.30;;
5493;SDS011;2769;49.864;8.656;2023-04-23T02:19:39;7.33;;;6.73;;
5493;SDS011;2769;49.864;8.656;2023-04-23T02:22:07;7.57;;;6.70;;
5493;SDS011;2769;49.864;8.656;2023-04-23T02:24:35;8.33;;;7.50;;
5493;SDS011;2769;49.864;8.656;2023-04-23T02:27:04;12.83;;;7.50;;
5493;SDS011;2769;49.864;8.656;2023-04-23T02:29:32;9.67;;;7.20;;
5493;SDS011;2769;49.864;8.656;2023-04-23T02:32:01;8.33;;;7.47;;
5493;SDS011;2769;49.864;8.656;2023-04-23T02:34:29;10.93;;;7.57;;
5493;SDS011;2769;49.864;8.656;2023-04-23T02:36:57;7.87;;;7.10;;
5493;SDS011;2769;49.864;8.656;2023-04-23T02:39:25;8.40;;;7.60;;
5493;SDS011;2769;49.864;8.656;2023-04-23T02:41:52;12.33;;;7.30;;
5493;SDS011;2769;49.864;8.656;2023-04-23T02:44:21;8.17;;;7.37;;
5493;SDS011;2769;49.864;8.656;2023-04-23T02:46:49;8.03;;;6.03;;
5493;SDS011;2769;49.864;8.656;2023-04-23T02:49:19;7.80;;;7.10;;
5493;SDS011;2769;49.864;8.656;2023-04-23T02:51:46;7.77;;;6.97;;
5493;SDS011;2769;49.864;8.656;2023-04-23T02:54:15;9.07;;;7.07;;
5493;SDS011;2769;49.864;8.656;2023-04-23T02:56:43;12.30;;;7.87;;
5493;SDS011;2769;49.864;8.656;2023-04-23T02:59:12;7.93;;;7.30;;
5493;SDS011;2769;49.864;8.656;2023-04-23T03:01:40;8.80;;;7.37;;
5493;SDS011;2769;49.864;8.656;2023-04-23T03:04:09;8.13;;;7.33;;
5493;SDS011;2769;49.864;8.656;2023-04-23T03:06:39;9.00;;;8.10;;
5493;SDS011;2769;49.864;8.656;2023-04-23T03:09:07;9.97;;;8.10;;
5493;SDS011;2769;49.864;8.656;2023-04-23T03:11:35;9.07;;;7.63;;
5493;SDS011;2769;49.864;8.656;2023-04-23T03:14:03;9.13;;;8.10;;
5493;SDS011;2769;49.864;8.656;2023-04-23T03:16:31;9.90;;;8.00;;
5493;SDS011;2769;49.864;8.656;2023-04-23T03:18:59;8.73;;;7.93;;
5493;SDS011;2769;49.864;8.656;2023-04-23T03:21:27;8.83;;;7.93;;
5493;SDS011;2769;49.864;8.656;2023-04-23T03:23:56;9.23;;;8.33;;
5493;SDS011;2769;49.864;8.656;2023-04-23T03:26:24;8.57;;;7.70;;
5493;SDS011;2769;49.864;8.656;2023-04-23T03:28:52;8.93;;;8.13;;
5493;SDS011;2769;49.864;8.656;2023-04-23T03:31:20;8.87;;;7.63;;
5493;SDS011;2769;49.864;8.656;2023-04-23T03:33:48;10.83;;;8.07;;
5493;SDS011;2769;49.864;8.656;2023-04-23T03:36:22;8.77;;;7.80;;
5493;SDS011;2769;49.864;8.656;2023-04-23T03:38:50;9.13;;;8.20;;
5493;SDS011;2769;49.864;8.656;2023-04-23T03:41:19;8.73;;;7.90;;
5493;SDS011;2769;49.864;8.656;2023-04-23T03:43:48;10.60;;;8.90;;
5493;SDS011;2769;49.864;8.656;2023-04-23T03:46:39;10.47;;;8.47;;
5493;SDS011;2769;49.864;8.656;2023-04-23T03:49:07;13.37;;;9.23;;
5493;SDS011;2769;49.864;8.656;2023-04-23T03:51:35;12.80;;;9.27;;
5493;SDS011;2769;49.864;8.656;2023-04-23T03:54:03;10.77;;;8.53;;
5493;SDS011;2769;49.864;8.656;2023-04-23T03:56:35;11.47;;;8.70;;
5493;SDS011;2769;49.864;8.656;2023-04-23T03:59:16;9.17;;;8.07;;
5493;SDS011;2769;49.864;8.656;2023-04-23T04:01:46;11.93;;;9.03;;
5493;SDS011;2769;49.864;8.656;2023-04-23T04:04:16;11.03;;;8.50;;
5493;SDS011;2769;49.864;8.656;2023-04-23T04:06:45;11.50;;;8.33;;
5493;SDS011;2769;49.864;8.656;2023-04-23T04:09:12;9.63;;;8.20;;
5493;SDS011;2769;49.864;8.656;2023-04-23T04:11:42;11.90;;;8.70;;
5493;SDS011;2769;49.864;8.656;2023-04-23T04:14:10;10.47;;;9.07;;
5493;SDS011;2769;49.864;8.656;2023-04-23T04:16:37;9.90;;;8.93;;
5493;SDS011;2769;49.864;8.656;2023-04-23T04:19:06;9.33;;;8.50;;
5493;SDS011;2769;49.864;8.656;2023-04-23T04:21:34;9.47;;;8.23;;
5493;SDS011;2769;49.864;8.656;2023-04-23T04:24:02;10.00;;;8.10;;
5493;SDS011;2769;49.864;8.656;2023-04-23T04:26:30;10.07;;;7.87;;
5493;SDS011;2769;49.864;8.656;2023-04-23T04:29:01;9.10;;;8.30;;
5493;SDS011;2769;49.864;8.656;2023-04-23T04:31:28;9.57;;;8.43;;
5493;SDS011;2769;49.864;8.656;2023-04-23T04:33:57;9.70;;;8.80;;
5493;SDS011;2769;49.864;8.656;2023-04-23T04:36:26;8.10;;;7.20;;
5493;SDS011;2769;49.864;8.656;2023-04-23T04:38:55;8.33;;;7.43;;
5493;SDS011;2769;49.864;8.656;2023-04-23T04:41:24;8.40;;;6.90;;
5493;SDS011;2769;49.864;8.656;2023-04-23T04:43:53;11.40;;;8.30;;
5493;SDS011;2769;49.864;8.656;2023-04-23T04:46:22;9.90;;;7.90;;
5493;SDS011;2769;49.864;8.656;2023-04-23T04:48:51;8.60;;;7.70;;
5493;SDS011;2769;49.864;8.656;2023-04-23T04:51:20;8.63;;;7.77;;
5493;SDS011;2769;49.864;8.656;2023-04-23T04:53:48;8.20;;;7.27;;
5493;SDS011;2769;49.864;8.656;2023-04-23T04:56:16;8.77;;;7.50;;
5493;SDS011;2769;49.864;8.656;2023-04-23T04:58:43;8.57;;;7.30;;
5493;SDS011;2769;49.864;8.656;2023-04-23T05:01:11;9.00;;;7.43;;
5493;SDS011;2769;49.864;8.656;2023-04-23T05:03:41;8.60;;;7.50;;
5493;SDS011;2769;49.864;8.656;2023-04-23T05:06:09;9.03;;;8.13;;
5493;SDS011;2769;49.864;8.656;2023-04-23T05:08:37;14.00;;;7.50;;
5493;SDS011;2769;49.864;8.656;2023-04-23T05:11:05;8.07;;;7.37;;
5493;SDS011;2769;49.864;8.656;2023-04-23T05:13:32;7.50;;;6.70;;
5493;SDS011;2769;49.864;8.656;2023-04-23T05:16:01;11.00;;;7.00;;
5493;SDS011;2769;49.864;8.656;2023-04-23T05:18:29;8.33;;;7.53;;
5493;SDS011;2769;49.864;8.656;2023-04-23T05:20:58;11.43;;;6.93;;
5493;SDS011;2769;49.864;8.656;2023-04-23T05:23:26;7.80;;;7.00;;
5493;SDS011;2769;49.864;8.656;2023-04-23T05:25:54;7.93;;;7.17;;
5493;SDS011;2769;49.864;8.656;2023-04-23T05:28:23;7.63;;;6.80;;
5493;SDS011;2769;49.864;8.656;2023-04-23T05:30:51;7.33;;;6.60;;
5493;SDS011;2769;49.864;8.656;2023-04-23T05:33:19;7.60;;;5.93;;
5493;SDS011;2769;49.864;8.656;2023-04-23T05:35:47;7.63;;;6.87;;
5493;SDS011;2769;49.864;8.656;2023-04-23T05:38:16;6.83;;;5.97;;
5493;SDS011;2769;49.864;8.656;2023-04-23T05:40:44;7.40;;;6.77;;
5493;SDS011;2769;49.864;8.656;2023-04-23T05:43:12;7.43;;;6.73;;
5493;SDS011;2769;49.864;8.656;2023-04-23T05:45:40;6.90;;;6.30;;
5493;SDS011;2769;49.864;8.656;2023-04-23T05:48:09;6.90;;;6.20;;
5493;SDS011;2769;49.864;8.656;2023-04-23T05:50:37;6.67;;;6.07;;
5493;SDS011;2769;49.864;8.656;2023-04-23T05:53:05;7.10;;;6.00;;
5493;SDS011;2769;49.864;8.656;2023-04-23T05:55:34;6.30;;;5.70;;
5493;SDS011;2769;49.864;8.656;2023-04-23T05:58:02;6.53;;;5.93;;
5493;SDS011;2769;49.864;8.656;2023-04-23T06:00:30;8.73;;;5.83;;
5493;SDS011;2769;49.864;8.656;2023-04-23T06:03:01;6.43;;;5.93;;
5493;SDS011;2769;49.864;8.656;2023-04-23T06:05:29;7.27;;;6.47;;
5493;SDS011;2769;49.864;8.656;2023-04-23T06:07:57;6.50;;;5.90;;
5493;SDS011;2769;49.864;8.656;2023-04-23T06:10:25;6.63;;;6.00;;
5493;SDS011;2769;49.864;8.656;2023-04-23T06:12:54;8.20;;;6.10;;
5493;SDS011;2769;49.864;8.656;2023-04-23T06:15:22;6.40;;;5.37;;
5493;SDS011;2769;49.864;8.656;2023-04-23T06:17:52;7.00;;;5.67;;
5493;SDS011;2769;49.864;8.656;2023-04-23T06:20:20;8.03;;;5.80;;
5493;SDS011;2769;49.864;8.656;2023-04-23T06:22:48;5.40;;;5.00;;
5493;SDS011;2769;49.864;8.656;2023-04-23T06:25:16;6.77;;;6.10;;
5493;SDS011;2769;49.864;8.656;2023-04-23T06:27:44;6.23;;;5.63;;
5493;SDS011;2769;49.864;8.656;2023-04-23T06:30:19;6.00;;;5.50;;
5493;SDS011;2769;49.864;8.656;2023-04-23T06:32:48;6.50;;;5.57;;
5493;SDS011;2769;49.864;8.656;2023-04-23T06:35:17;5.80;;;5.30;;
5493;SDS011;2769;49.864;8.656;2023-04-23T06:37:45;5.70;;;5.20;;
5493;SDS011;2769;49.864;8.656;2023-04-23T06:40:13;6.10;;;5.60;;
5493;SDS011;2769;49.864;8.656;2023-04-23T06:42:41;7.40;;;5.57;;
5493;SDS011;2769;49.864;8.656;2023-04-23T06:45:16;5.07;;;4.67;;
5493;SDS011;2769;49.864;8.656;2023-04-23T06:47:45;5.23;;;4.60;;
5493;SDS011;2769;49.864;8.656;2023-04-23T06:50:15;7.60;;;4.60;;
5493;SDS011;2769;49.864;8.656;2023-04-23T06:52:43;4.20;;;3.80;;
5493;SDS011;2769;49.864;8.656;2023-04-23T06:55:11;4.40;;;4.10;;
5493;SDS011;2769;49.864;8.656;2023-04-23T06:57:39;4.73;;;4.33;;
5493;SDS011;2769;49.864;8.656;2023-04-23T07:00:08;4.30;;;4.00;;
5493;SDS011;2769;49.864;8.656;2023-04-23T07:02:40;4.07;;;3.67;;
5493;SDS011;2769;49.864;8.656;2023-04-23T07:05:09;4.40;;;3.70;;
5493;SDS011;2769;49.864;8.656;2023-04-23T07:07:37;4.70;;;4.27;;
5493;SDS011;2769;49.864;8.656;2023-04-23T07:10:06;3.70;;;3.40;;
5493;SDS011;2769;49.864;8.656;2023-04-23T07:12:35;4.23;;;3.90;;
5493;SDS011;2769;49.864;8.656;2023-04-23T07:15:04;6.63;;;4.10;;
5493;SDS011;2769;49.864;8.656;2023-04-23T07:17:32;5.03;;;4.40;;
5493;SDS011;2769;49.864;8.656;2023-04-23T07:20:01;4.23;;;3.93;;
5493;SDS011;2769;49.864;8.656;2023-04-23T07:22:34;4.10;;;3.80;;
5493;SDS011;2769;49.864;8.656;2023-04-23T07:25:02;3.97;;;3.67;;
5493;SDS011;2769;49.864;8.656;2023-04-23T07:27:31;4.20;;;3.90;;
5493;SDS011;2769;49.864;8.656;2023-04-23T07:29:59;4.87;;;4.20;;
5493;SDS011;2769;49.864;8.656;2023-04-23T07:32:27;4.70;;;4.30;;
5493;SDS011;2769;49.864;8.656;2023-04-23T07:34:55;4.07;;;3.87;;
5493;SDS011;2769;49.864;8.656;2023-04-23T07:37:23;4.57;;;4.27;;
5493;SDS011;2769;49.864;8.656;2023-04-23T07:39:53;7.37;;;3.63;;
5493;SDS011;2769;49.864;8.656;2023-04-23T07:42:20;4.20;;;3.80;;
5493;SDS011;2769;49.864;8.656;2023-04-23T07:44:48;6.37;;;4.47;;
5493;SDS011;2769;49.864;8.656;2023-04-23T07:47:16;5.40;;;3.43;;
5493;SDS011;2769;49.864;8.656;2023-04-23T07:49:44;3.70;;;3.40;;
5493;SDS011;2769;49.864;8.656;2023-04-23T07:52:12;4.37;;;4.03;;
5493;SDS011;2769;49.864;8.656;2023-04-23T07:54:40;4.40;;;4.10;;
5493;SDS011;2769;49.864;8.656;2023-04-23T07:57:10;4.90;;;4.50;;
5493;SDS011;2769;49.864;8.656;2023-04-23T07:59:38;4.90;;;3.50;;
5493;SDS011;2769;49.864;8.656;2023-04-23T08:02:06;3.87;;;3.57;;
5493;SDS011;2769;49.864;8.656;2023-04-23T08:04:34;6.70;;;3.60;;
5493;SDS011;2769;49.864;8.656;2023-04-23T08:07:02;3.30;;;3.00;;
5493;SDS011;2769;49.864;8.656;2023-04-23T08:09:30;3.40;;;3.20;;
5493;SDS011;2769;49.864;8.656;2023-04-23T08:11:58;4.20;;;3.00;;
5493;SDS011;2769;49.864;8.656;2023-04-23T08:14:28;3.10;;;3.00;;
5493;SDS011;2769;49.864;8.656;2023-04-23T08:16:57;3.80;;;3.13;;
5493;SDS011;2769;49.864;8.656;2023-04-23T08:19:25;3.10;;;2.97;;
5493;SDS011;2769;49.864;8.656;2023-04-23T08:21:57;3.43;;;3.13;;
5493;SDS011;2769;49.864;8.656;2023-04-23T08:24:24;3.63;;;3.40;;
5493;SDS011;2769;49.864;8.656;2023-04-23T08:26:52;3.70;;;3.50;;
5493;SDS011;2769;49.864;8.656;2023-04-23T08:29:20;3.73;;;3.43;;
5493;SDS011;2769;49.864;8.656;2023-04-23T08:31:50;3.60;;;3.40;;
5493;SDS011;2769;49.864;8.656;2023-04-23T08:34:18;4.60;;;3.37;;
5493;SDS011;2769;49.864;8.656;2023-04-23T08:36:46;2.70;;;2.50;;
5493;SDS011;2769;49.864;8.656;2023-04-23T08:39:14;3.23;;;2.93;;
5493;SDS011;2769;49.864;8.656;2023-04-23T08:41:42;2.77;;;2.57;;
5493;SDS011;2769;49.864;8.656;2023-04-23T08:44:12;3.47;;;3.03;;
5493;SDS011;2769;49.864;8.656;2023-04-23T08:46:44;3.97;;;2.60;;
5493;SDS011;2769;49.864;8.656;2023-04-23T08:49:14;3.23;;;2.97;;
5493;SDS011;2769;49.864;8.656;2023-04-23T08:51:45;3.10;;;2.90;;
5493;SDS011;2769;49.864;8.656;2023-04-23T08:54:18;2.80;;;2.60;;
5493;SDS011;2769;49.864;8.656;2023-04-23T08:56:48;3.57;;;2.80;;
5493;SDS011;2769;49.864;8.656;2023-04-23T08:59:16;2.87;;;2.77;;
5493;SDS011;2769;49.864;8.656;2023-04-23T09:01:46;3.10;;;2.80;;
5493;SDS011;2769;49.864;8.656;2023-04-23T09:04:17;2.93;;;2.83;;
5493;SDS011;2769;49.864;8.656;2023-04-23T09:06:45;3.20;;;2.93;;
5493;SDS011;2769;49.864;8.656;2023-04-23T09:09:14;5.20;;;3.10;;
5493;SDS011;2769;49.864;8.656;2023-04-23T09:11:43;3.30;;;3.07;;
5493;SDS011;2769;49.864;8.656;2023-04-23T09:14:11;3.43;;;3.10;;
5493;SDS011;2769;49.864;8.656;2023-04-23T09:16:39;4.93;;;3.37;;
5493;SDS011;2769;49.864;8.656;2023-04-23T09:19:08;3.30;;;3.10;;
5493;SDS011;2769;49.864;8.656;2023-04-23T09:21:38;2.93;;;2.73;;
5493;SDS011;2769;49.864;8.656;2023-04-23T09:24:08;2.77;;;2.67;;
5493;SDS011;2769;49.864;8.656;2023-04-23T09:26:42;2.63;;;2.47;;
5493;SDS011;2769;49.864;8.656;2023-04-23T09:29:12;3.03;;;2.30;;
5493;SDS011;2769;49.864;8.656;2023-04-23T09:31:44;2.63;;;2.40;;
5493;SDS011;2769;49.864;8.656;2023-04-23T09:34:13;2.83;;;2.53;;
5493;SDS011;2769;49.864;8.656;2023-04-23T09:36:43;4.43;;;3.07;;
5493;SDS011;2769;49.864;8.656;2023-04-23T09:39:12;2.57;;;2.40;;
5493;SDS011;2769;49.864;8.656;2023-04-23T09:41:40;8.87;;;2.60;;
5493;SDS011;2769;49.864;8.656;2023-04-23T09:44:08;3.17;;;2.87;;
5493;SDS011;2769;49.864;8.656;2023-04-23T09:46:38;2.70;;;2.50;;
5493;SDS011;2769;49.864;8.656;2023-04-23T09:49:07;3.53;;;2.63;;
5493;SDS011;2769;49.864;8.656;2023-04-23T09:51:36;2.47;;;2.37;;
5493;SDS011;2769;49.864;8.656;2023-04-23T09:54:10;2.37;;;2.20;;
5493;SDS011;2769;49.864;8.656;2023-04-23T09:56:39;2.97;;;2.50;;
5493;SDS011;2769;49.864;8.656;2023-04-23T10:02:10;2.97;;;2.30;;
5493;SDS011;2769;49.864;8.656;2023-04-23T10:04:39;2.50;;;2.30;;
5493;SDS011;2769;49.864;8.656;2023-04-23T10:07:07;3.20;;;2.07;;
5493;SDS011;2769;49.864;8.656;2023-04-23T10:09:43;2.90;;;1.97;;
5493;SDS011;2769;49.864;8.656;2023-04-23T10:12:11;2.00;;;1.90;;
5493;SDS011;2769;49.864;8.656;2023-04-23T10:14:42;2.83;;;2.10;;
5493;SDS011;2769;49.864;8.656;2023-04-23T10:17:10;1.97;;;1.87;;
5493;SDS011;2769;49.864;8.656;2023-04-23T10:19:38;3.47;;;1.90;;
5493;SDS011;2769;49.864;8.656;2023-04-23T10:22:09;1.97;;;1.87;;
5493;SDS011;2769;49.864;8.656;2023-04-23T10:24:47;2.20;;;2.10;;
5493;SDS011;2769;49.864;8.656;2023-04-23T10:27:25;1.90;;;1.70;;
5493;SDS011;2769;49.864;8.656;2023-04-23T10:30:10;2.20;;;1.80;;
5493;SDS011;2769;49.864;8.656;2023-04-23T10:32:38;2.17;;;2.07;;
5493;SDS011;2769;49.864;8.656;2023-04-23T10:35:07;2.50;;;2.37;;
5493;SDS011;2769;49.864;8.656;2023-04-23T10:37:36;2.30;;;2.10;;
5493;SDS011;2769;49.864;8.656;2023-04-23T10:40:07;2.00;;;1.90;;
5493;SDS011;2769;49.864;8.656;2023-04-23T10:42:37;3.40;;;2.00;;
5493;SDS011;2769;49.864;8.656;2023-04-23T10:45:12;1.90;;;1.80;;
5493;SDS011;2769;49.864;8.656;2023-04-23T10:47:49;2.10;;;2.00;;
5493;SDS011;2769;49.864;8.656;2023-04-23T10:50:17;3.37;;;2.13;;
5493;SDS011;2769;49.864;8.656;2023-04-23T10:52:48;6.03;;;2.67;;
5493;SDS011;2769;49.864;8.656;2023-04-23T10:55:21;4.80;;;2.80;;
5493;SDS011;2769;49.864;8.656;2023-04-23T10:57:59;2.90;;;2.50;;
5493;SDS011;2769;49.864;8.656;2023-04-23T11:00:41;4.20;;;2.10;;
5493;SDS011;2769;49.864;8.656;2023-04-23T11:03:30;2.37;;;2.27;;
5493;SDS011;2769;49.864;8.656;2023-04-23T11:06:02;2.73;;;2.33;;
5493;SDS011;2769;49.864;8.656;2023-04-23T11:08:30;2.20;;;2.00;;
5493;SDS011;2769;49.864;8.656;2023-04-23T11:11:06;2.30;;;2.00;;
5493;SDS011;2769;49.864;8.656;2023-04-23T11:13:40;2.47;;;2.27;;
5493;SDS011;2769;49.864;8.656;2023-04-23T11:16:19;3.10;;;2.27;;
5493;SDS011;2769;49.864;8.656;2023-04-23T11:18:54;2.47;;;2.37;;
5493;SDS011;2769;49.864;8.656;2023-04-23T11:24:23;2.60;;;2.47;;
5493;SDS011;2769;49.864;8.656;2023-04-23T11:26:53;3.03;;;2.20;;
5493;SDS011;2769;49.864;8.656;2023-04-23T11:29:21;3.37;;;2.10;;
5493;SDS011;2769;49.864;8.656;2023-04-23T11:31:50;3.43;;;1.80;;
5493;SDS011;2769;49.864;8.656;2023-04-23T11:34:28;2.00;;;1.67;;
5493;SDS011;2769;49.864;8.656;2023-04-23T11:36:57;3.80;;;2.40;;
5493;SDS011;2769;49.864;8.656;2023-04-23T11:39:26;2.17;;;1.90;;
5493;SDS011;2769;49.864;8.656;2023-04-23T11:41:58;2.30;;;1.87;;
5493;SDS011;2769;49.864;8.656;2023-04-23T11:44:28;2.23;;;1.97;;
5493;SDS011;2769;49.864;8.656;2023-04-23T11:46:59;2.20;;;2.10;;
5493;SDS011;2769;49.864;8.656;2023-04-23T11:49:28;2.10;;;2.00;;
5493;SDS011;2769;49.864;8.656;2023-04-23T11:51:57;2.93;;;2.00;;
5493;SDS011;2769;49.864;8.656;2023-04-23T11:54:26;2.10;;;2.00;;
5493;SDS011;2769;49.864;8.656;2023-04-23T11:56:55;3.10;;;2.20;;
5493;SDS011;2769;49.864;8.656;2023-04-23T11:59:24;2.23;;;2.13;;
5493;SDS011;2769;49.864;8.656;2023-04-23T12:01:54;2.50;;;2.30;;
5493;SDS011;2769;49.864;8.656;2023-04-23T12:04:23;3.23;;;1.83;;
5493;SDS011;2769;49.864;8.656;2023-04-23T12:06:52;2.20;;;2.00;;
5493;SDS011;2769;49.864;8.656;2023-04-23T12:09:21;1.90;;;1.80;;
5493;SDS011;2769;49.864;8.656;2023-04-23T12:11:50;1.77;;;1.67;;
5493;SDS011;2769;49.864;8.656;2023-04-23T12:14:18;1.80;;;1.70;;
5493;SDS011;2769;49.864;8.656;2023-04-23T12:16:50;3.90;;;1.53;;
5493;SDS011;2769;49.864;8.656;2023-04-23T12:19:19;1.60;;;1.50;;
5493;SDS011;2769;49.864;8.656;2023-04-23T12:21:51;3.00;;;1.60;;
5493;SDS011;2769;49.864;8.656;2023-04-23T12:24:20;1.73;;;1.50;;
5493;SDS011;2769;49.864;8.656;2023-04-23T12:26:51;1.77;;;1.67;;
5493;SDS011;2769;49.864;8.656;2023-04-23T12:29:21;2.40;;;1.40;;
5493;SDS011;2769;49.864;8.656;2023-04-23T12:31:51;1.40;;;1.30;;
5493;SDS011;2769;49.864;8.656;2023-04-23T12:34:20;1.53;;;1.43;;
5493;SDS011;2769;49.864;8.656;2023-04-23T12:36:48;2.50;;;1.37;;
5493;SDS011;2769;49.864;8.656;2023-04-23T12:39:18;3.43;;;1.70;;
5493;SDS011;2769;49.864;8.656;2023-04-23T12:41:47;1.47;;;1.40;;
5493;SDS011;2769;49.864;8.656;2023-04-23T12:44:16;1.50;;;1.40;;
5493;SDS011;2769;49.864;8.656;2023-04-23T12:46:44;3.37;;;1.20;;
5493;SDS011;2769;49.864;8.656;2023-04-23T12:49:14;1.93;;;1.47;;
5493;SDS011;2769;49.864;8.656;2023-04-23T12:51:42;1.80;;;1.10;;
5493;SDS011;2769;49.864;8.656;2023-04-23T12:54:10;1.30;;;1.20;;
5493;SDS011;2769;49.864;8.656;2023-04-23T12:56:38;0.90;;;0.90;;
5493;SDS011;2769;49.864;8.656;2023-04-23T12:59:06;1.03;;;1.03;;
5493;SDS011;2769;49.864;8.656;2023-04-23T13:01:34;2.30;;;1.17;;
5493;SDS011;2769;49.864;8.656;2023-04-23T13:04:01;1.73;;;1.23;;
5493;SDS011;2769;49.864;8.656;2023-04-23T13:06:31;1.83;;;1.40;;
5493;SDS011;2769;49.864;8.656;2023-04-23T13:08:59;1.20;;;1.20;;
5493;SDS011;2769;49.864;8.656;2023-04-23T13:11:28;1.33;;;0.93;;
5493;SDS011;2769;49.864;8.656;2023-04-23T13:13:56;1.53;;;1.20;;
5493;SDS011;2769;49.864;8.656;2023-04-23T13:16:24;1.30;;;1.20;;
5493;SDS011;2769;49.864;8.656;2023-04-23T13:18:52;1.70;;;1.10;;
5493;SDS011;2769;49.864;8.656;2023-04-23T13:21:21;1.93;;;1.20;;
5493;SDS011;2769;49.864;8.656;2023-04-23T13:23:55;3.23;;;1.40;;
5493;SDS011;2769;49.864;8.656;2023-04-23T13:26:23;1.33;;;1.17;;
5493;SDS011;2769;49.864;8.656;2023-04-23T13:28:51;2.20;;;1.40;;
5493;SDS011;2769;49.864;8.656;2023-04-23T13:31:18;1.40;;;1.30;;
5493;SDS011;2769;49.864;8.656;2023-04-23T13:33:46;1.13;;;1.13;;
5493;SDS011;2769;49.864;8.656;2023-04-23T13:36:14;1.27;;;1.27;;
5493;SDS011;2769;49.864;8.656;2023-04-23T13:38:42;1.23;;;1.13;;
5493;SDS011;2769;49.864;8.656;2023-04-23T13:41:11;1.13;;;1.13;;
5493;SDS011;2769;49.864;8.656;2023-04-23T13:43:39;1.20;;;1.20;;
5493;SDS011;2769;49.864;8.656;2023-04-23T13:46:07;1.70;;;1.20;;
5493;SDS011;2769;49.864;8.656;2023-04-23T13:48:35;2.10;;;1.40;;
5493;SDS011;2769;49.864;8.656;2023-04-23T13:51:03;1.20;;;1.20;;
5493;SDS011;2769;49.864;8.656;2023-04-23T13:53:47;1.40;;;1.30;;
5493;SDS011;2769;49.864;8.656;2023-04-23T13:56:18;1.60;;;1.23;;
5493;SDS011;2769;49.864;8.656;2023-04-23T13:58:50;1.10;;;1.10;;
5493;SDS011;2769;49.864;8.656;2023-04-23T14:01:37;2.33;;;1.50;;
5493;SDS011;2769;49.864;8.656;2023-04-23T14:04:06;1.43;;;1.27;;
5493;SDS011;2769;49.864;8.656;2023-04-23T14:06:36;1.30;;;1.20;;
5493;SDS011;2769;49.864;8.656;2023-04-23T14:09:05;1.20;;;1.20;;
5493;SDS011;2769;49.864;8.656;2023-04-23T14:11:35;1.57;;;1.20;;
5493;SDS011;2769;49.864;8.656;2023-04-23T14:14:04;2.70;;;1.10;;
5493;SDS011;2769;49.864;8.656;2023-04-23T14:16:33;1.40;;;1.30;;
5493;SDS011;2769;49.864;8.656;2023-04-23T14:19:04;1.13;;;1.10;;
5493;SDS011;2769;49.864;8.656;2023-04-23T14:21:31;1.10;;;1.00;;
5493;SDS011;2769;49.864;8.656;2023-04-23T14:24:01;1.13;;;1.13;;
5493;SDS011;2769;49.864;8.656;2023-04-23T14:26:36;1.20;;;1.10;;
5493;SDS011;2769;49.864;8.656;2023-04-23T14:29:17;1.20;;;1.10;;
5493;SDS011;2769;49.864;8.656;2023-04-23T14:31:50;1.47;;;1.03;;
5493;SDS011;2769;49.864;8.656;2023-04-23T14:34:18;2.20;;;1.30;;
5493;SDS011;2769;49.864;8.656;2023-04-23T14:36:46;1.37;;;1.27;;
5493;SDS011;2769;49.864;8.656;2023-04-23T14:39:15;1.13;;;1.00;;
5493;SDS011;2769;49.864;8.656;2023-04-23T14:41:44;1.73;;;1.20;;
5493;SDS011;2769;49.864;8.656;2023-04-23T14:44:15;1.13;;;1.13;;
5493;SDS011;2769;49.864;8.656;2023-04-23T14:46:43;1.50;;;1.40;;
5493;SDS011;2769;49.864;8.656;2023-04-23T14:49:11;1.20;;;1.03;;
5493;SDS011;2769;49.864;8.656;2023-04-23T14:51:39;0.97;;;0.97;;
5493;SDS011;2769;49.864;8.656;2023-04-23T14:54:08;1.57;;;1.47;;
5493;SDS011;2769;49.864;8.656;2023-04-23T14:56:35;1.47;;;1.00;;
5493;SDS011;2769;49.864;8.656;2023-04-23T14:59:05;1.40;;;1.30;;
5493;SDS011;2769;49.864;8.656;2023-04-23T15:01:33;2.50;;;1.50;;
5493;SDS011;2769;49.864;8.656;2023-04-23T15:04:01;1.10;;;1.10;;
5493;SDS011;2769;49.864;8.656;2023-04-23T15:06:29;1.37;;;1.27;;
5493;SDS011;2769;49.864;8.656;2023-04-23T15:08:57;1.30;;;1.20;;
5493;SDS011;2769;49.864;8.656;2023-04-23T15:11:25;1.20;;;1.10;;
5493;SDS011;2769;49.864;8.656;2023-04-23T15:14:00;1.00;;;1.00;;
5493;SDS011;2769;49.864;8.656;2023-04-23T15:16:31;1.20;;;1.20;;
5493;SDS011;2769;49.864;8.656;2023-04-23T15:19:03;3.80;;;1.10;;
5493;SDS011;2769;49.864;8.656;2023-04-23T15:21:32;1.10;;;1.10;;
5493;SDS011;2769;49.864;8.656;2023-04-23T15:24:00;1.40;;;1.30;;
5493;SDS011;2769;49.864;8.656;2023-04-23T15:26:28;1.27;;;1.17;;
5493;SDS011;2769;49.864;8.656;2023-04-23T15:28:58;1.10;;;1.10;;
5493;SDS011;2769;49.864;8.656;2023-04-23T15:31:26;1.00;;;1.00;;
5493;SDS011;2769;49.864;8.656;2023-04-23T15:33:55;2.13;;;1.40;;